Αρχική σελίδα
METAR-TAF:

METAR-TAF

Αεροδρόμια :

El Borma, Τυνησία

γεωγραφικό πλάτος: 31-41N, γεωγραφικό μήκος: 009-10E, υψόμετρο: 258 μ

Παρών καιρός

Η αναφορά έγινε 10 ώρες και 2 λεπτά πριν, στις 14:00 UTC
Άνεμος 11 kt από Ν, μεταβλητός μεταξύ ΝA και Ν/ΝΔ
Θερμοκρασία 46°C
Υγρασία 6%
Πίεση 1013 hPa
Ορατότητα 10 χλμ και άνω
Δεν υπάρχουν νέφη με βάση κάτω από τα 1500 μ. και δεν υπάρχουν νέφη σωρειτομελανίτες.

METAR: DTTR 221400Z 18011KT 140V210 CAVOK 46/00 Q1013 SIROCCO

Χρόνος: 01:02 (00:02 UTC)


TAF: λείπει

Μετεωρολογικές αναφορές και προγνώσεις για περισσότερα από 4000 αεροδρόμια (δελτία METAR και TAF).

Οι διαθέσιμοι σταθμοί απεικονίζονται στο χάρτη με κίτρινες και κόκκινες κουκκίδες.

Μετακινήστε το ποντίκι πάνω από τις κουκκίδες για να δείτε το όνομα του σταθμού.

Στη συνέχεια, κάντε κλικ για να δείτε τις μετεωρολογικές αναφορές και τις προγνώσεις καιρού.

Για να αλλάξετε το χάρτη: κάντε κλικ στα πράσινα κουμπιά με τον μαύρο σταυρό για να ζουμάρετε, στο πράσινο κουμπί με την παύλα για να αφαιρέσετε το ζουμ ή στα πράσινα βέλη για να αντιπαραβάλλετε χάρτες.


METAR-TAF: